Time;durP1;ratioP1;P1;durP2;ratioP2;P2;SDS_P1;SDS_P2;PMS_P1;PMS_P2;Temp;Humidity;BMP_temperature;BMP_pressure;BME280_temperature;BME280_humidity;BME280_pressure;Samples;Min_cycle;Max_cycle;Signal;HPM_P1;HPM_P2
2022/09/12 00:02:23;;;;;;;2.33;0.60;;;21.50;94.90;;;;;;5083979;28;20024;-82
2022/09/12 00:04:49;;;;;;;3.80;0.80;;;21.40;95.00;;;;;;5083648;28;20039;-82
2022/09/12 00:07:15;;;;;;;2.83;0.88;;;21.40;94.90;;;;;;5083898;28;20351;-82
2022/09/12 00:09:40;;;;;;;0.98;0.40;;;21.30;94.80;;;;;;5083433;28;20332;-82
2022/09/12 00:12:07;;;;;;;1.55;0.40;;;21.30;94.90;;;;;;5083456;28;20009;-82
2022/09/12 00:14:32;;;;;;;1.95;0.50;;;21.30;95.10;;;;;;5083120;28;20290;-82
2022/09/12 00:16:59;;;;;;;4.10;0.63;;;21.30;95.00;;;;;;5082783;28;20328;-82
2022/09/12 00:19:26;;;;;;;1.42;0.40;;;21.30;95.20;;;;;;5082400;28;20216;-82
2022/09/12 00:21:52;;;;;;;0.70;0.40;;;21.20;95.40;;;;;;5083474;28;20031;-82
2022/09/12 00:24:17;;;;;;;1.95;0.65;;;21.20;95.40;;;;;;5081724;28;20020;-82
2022/09/12 00:26:43;;;;;;;2.47;0.70;;;21.20;95.50;;;;;;5082998;28;20305;-82
2022/09/12 00:29:15;;;;;;;1.90;0.55;;;21.20;95.70;;;;;;5083499;28;20012;-82
2022/09/12 00:31:41;;;;;;;0.80;0.40;;;21.20;95.90;;;;;;5080496;28;20048;-82
2022/09/12 00:34:08;;;;;;;2.80;0.82;;;21.20;95.40;;;;;;5077050;28;20055;-82
2022/09/12 00:36:33;;;;;;;0.98;0.30;;;21.10;95.70;;;;;;5083721;28;20027;-82
2022/09/12 00:38:59;;;;;;;2.88;0.50;;;21.10;95.70;;;;;;5077566;28;20111;-82
2022/09/12 00:41:27;;;;;;;1.83;0.50;;;21.20;95.80;;;;;;5074257;28;20100;-82
2022/09/12 00:44:21;;;;;;;2.15;0.52;;;21.20;95.80;;;;;;5083536;28;20300;-82
2022/09/12 00:46:50;;;;;;;1.95;0.70;;;21.20;95.70;;;;;;5064919;28;20051;-82
2022/09/12 00:49:27;;;;;;;1.30;0.40;;;21.10;95.90;;;;;;5082656;28;20035;-82
2022/09/12 00:52:24;;;;;;;0.75;0.28;;;21.10;96.00;;;;;;5080629;28;20228;-82
2022/09/12 00:55:07;;;;;;;2.47;0.40;;;21.00;96.00;;;;;;5079010;28;20033;-82
2022/09/12 00:57:38;;;;;;;1.67;0.40;;;21.10;96.20;;;;;;5083097;28;20039;-82
2022/09/12 01:00:15;;;;;;;0.95;0.40;;;21.10;96.20;;;;;;5081167;28;20035;-82
2022/09/12 01:02:55;;;;;;;1.42;0.40;;;21.10;96.20;;;;;;5077530;28;20043;-82
2022/09/12 01:05:22;;;;;;;0.65;0.38;;;21.00;96.50;;;;;;5082729;28;20364;-82
2022/09/12 01:07:49;;;;;;;5.53;0.65;;;21.10;96.40;;;;;;5079073;28;20013;-82
2022/09/12 01:10:15;;;;;;;0.93;0.55;;;20.90;96.40;;;;;;5082200;28;20032;-81
2022/09/12 01:12:42;;;;;;;1.38;0.32;;;20.90;96.60;;;;;;5082167;28;20036;-82
2022/09/12 01:15:09;;;;;;;1.30;0.40;;;20.90;96.90;;;;;;5082429;28;20040;-82
2022/09/12 01:17:55;;;;;;;1.05;0.30;;;20.90;96.90;;;;;;5082550;28;20313;-81
2022/09/12 01:20:23;;;;;;;1.52;0.28;;;20.80;96.90;;;;;;5079140;28;20016;-82
2022/09/12 01:23:30;;;;;;;3.05;0.57;;;20.80;97.00;;;;;;5077601;28;20063;-82
2022/09/12 01:26:08;;;;;;;3.22;0.52;;;20.80;97.00;;;;;;5077191;28;20024;-82
2022/09/12 01:28:43;;;;;;;3.40;0.50;;;20.70;97.10;;;;;;5079548;28;20028;-82
2022/09/12 01:31:23;;;;;;;1.63;0.47;;;20.80;97.30;;;;;;5082551;28;20086;-82
2022/09/12 01:33:59;;;;;;;1.92;0.40;;;20.80;97.10;;;;;;5081822;28;20380;-82
2022/09/12 01:36:47;;;;;;;2.75;0.32;;;20.80;97.20;;;;;;5072554;28;20029;-81
2022/09/12 01:39:37;;;;;;;0.63;0.30;;;20.80;97.40;;;;;;5074334;28;20039;-82
2022/09/12 01:42:28;;;;;;;3.58;0.50;;;20.80;97.40;;;;;;5078964;28;20017;-81
2022/09/12 01:44:59;;;;;;;1.05;0.30;;;20.80;97.60;;;;;;5077373;28;20012;-82
2022/09/12 01:47:43;;;;;;;1.23;0.40;;;20.70;97.50;;;;;;5080599;28;20024;-82
2022/09/12 01:50:17;;;;;;;;;;;20.70;97.60;;;;;;5080740;28;20036;-82
2022/09/12 01:52:52;;;;;;;1.45;0.45;;;20.70;97.70;;;;;;5081445;28;19909;-82
2022/09/12 01:55:27;;;;;;;3.85;0.40;;;20.60;98.00;;;;;;5075127;28;20028;-82
2022/09/12 01:57:55;;;;;;;;;;;20.60;97.80;;;;;;5080635;28;20024;-82
2022/09/12 02:00:21;;;;;;;2.70;0.50;;;20.60;98.00;;;;;;5081795;28;19907;-82
2022/09/12 02:02:51;;;;;;;1.15;0.47;;;20.60;98.10;;;;;;5081804;28;20009;-82
2022/09/12 02:05:36;;;;;;;1.45;0.43;;;20.60;98.10;;;;;;5078797;28;20317;-82
2022/09/12 02:08:13;;;;;;;2.92;0.40;;;20.50;98.10;;;;;;5078307;28;20019;-82
2022/09/12 02:10:57;;;;;;;0.98;0.40;;;20.60;98.10;;;;;;5079920;28;20103;-82
2022/09/12 02:13:31;;;;;;;3.50;0.67;;;20.60;98.10;;;;;;5072229;28;20473;-82
2022/09/12 02:16:10;;;;;;;1.05;0.30;;;20.60;98.30;;;;;;5081223;28;20342;-82
2022/09/12 02:18:46;;;;;;;1.42;0.38;;;20.50;98.30;;;;;;5080048;28;20130;-81
2022/09/12 02:21:12;;;;;;;1.45;0.32;;;20.50;98.30;;;;;;5081192;28;20032;-82
2022/09/12 02:23:45;;;;;;;3.80;0.47;;;20.50;98.20;;;;;;5080959;28;20019;-81
2022/09/12 02:26:22;;;;;;;2.00;0.30;;;20.40;98.40;;;;;;5080256;28;20239;-82
2022/09/12 02:28:48;;;;;;;1.13;0.40;;;20.40;98.40;;;;;;5080996;28;20028;-82
2022/09/12 02:31:25;;;;;;;1.30;0.40;;;20.40;98.40;;;;;;5077308;28;20111;-82
2022/09/12 02:34:29;;;;;;;1.05;0.40;;;20.40;98.50;;;;;;5081030;28;20039;-82
2022/09/12 02:37:26;;;;;;;0.60;0.30;;;20.40;98.80;;;;;;5078896;28;20016;-82
2022/09/12 02:39:54;;;;;;;2.83;0.50;;;20.40;98.70;;;;;;5075951;28;20066;-82
2022/09/12 02:42:20;;;;;;;2.67;0.43;;;20.40;98.60;;;;;;5080555;28;20024;-82
2022/09/12 02:44:45;;;;;;;2.45;0.35;;;20.40;98.80;;;;;;5080666;28;20222;-81
2022/09/12 02:47:20;;;;;;;5.60;0.43;;;20.40;98.80;;;;;;5080921;28;20032;-81
2022/09/12 02:49:46;;;;;;;1.80;0.50;;;20.30;98.90;;;;;;5080421;28;20053;-82
2022/09/12 02:52:12;;;;;;;1.30;0.40;;;20.30;98.80;;;;;;5079642;28;20031;-82
2022/09/12 02:54:38;;;;;;;3.20;0.50;;;20.30;99.20;;;;;;5080361;28;20036;-82
2022/09/12 02:57:14;;;;;;;0.82;0.43;;;20.20;99.00;;;;;;5080635;28;20017;-82
2022/09/12 02:59:40;;;;;;;2.30;0.40;;;20.20;99.00;;;;;;5076421;28;20399;-82
2022/09/12 03:02:42;;;;;;;1.15;0.52;;;20.20;99.10;;;;;;5080873;28;20258;-82
2022/09/12 03:05:17;;;;;;;1.83;0.52;;;20.20;99.00;;;;;;5074445;28;20108;-82
2022/09/12 03:07:55;;;;;;;2.17;0.57;;;20.20;99.30;;;;;;5075898;28;20036;-82
2022/09/12 03:10:41;;;;;;;1.25;0.50;;;20.20;99.10;;;;;;5079137;28;20013;-81
2022/09/12 03:13:23;;;;;;;1.17;0.35;;;20.20;99.10;;;;;;5080167;28;20031;-82
2022/09/12 03:16:23;;;;;;;0.93;0.40;;;20.20;99.30;;;;;;5070325;28;20028;-81
2022/09/12 03:19:04;;;;;;;2.10;0.50;;;20.20;99.40;;;;;;5042604;28;20029;-82
2022/09/12 03:21:51;;;;;;;3.72;0.50;;;20.20;99.30;;;;;;5081499;28;20020;-81
2022/09/12 03:24:42;;;;;;;1.75;0.40;;;20.20;99.60;;;;;;5079886;28;20056;-82
2022/09/12 03:27:31;;;;;;;3.08;0.47;;;20.20;99.80;;;;;;5082980;28;20024;-82
2022/09/12 03:29:57;;;;;;;2.40;0.77;;;20.10;99.80;;;;;;5077582;28;20028;-81
2022/09/12 03:32:45;;;;;;;1.90;0.40;;;20.10;99.90;;;;;;5083625;28;20170;-82
2022/09/12 03:35:13;;;;;;;1.02;0.35;;;20.00;99.90;;;;;;5083961;28;20088;-82
2022/09/12 03:37:38;;;;;;;1.52;0.60;;;20.00;99.90;;;;;;5083161;28;20044;-81
2022/09/12 03:40:05;;;;;;;1.48;0.32;;;20.00;99.90;;;;;;5083678;28;20032;-82
2022/09/12 03:42:30;;;;;;;1.83;0.60;;;20.00;99.90;;;;;;5084418;28;20035;-82
2022/09/12 03:44:56;;;;;;;2.28;0.47;;;20.00;99.90;;;;;;5083030;28;20052;-82
2022/09/12 03:47:21;;;;;;;1.92;0.40;;;20.00;99.90;;;;;;5084427;28;20043;-82
2022/09/12 03:49:47;;;;;;;2.42;0.40;;;20.00;99.90;;;;;;5083725;28;20017;-81
2022/09/12 03:52:13;;;;;;;1.55;0.40;;;20.00;99.90;;;;;;5077846;28;20592;-82
2022/09/12 03:54:38;;;;;;;2.45;0.40;;;19.90;99.90;;;;;;5082201;28;20109;-81
2022/09/12 03:57:04;;;;;;;1.20;0.57;;;20.00;99.90;;;;;;5079811;28;20103;-82
2022/09/12 03:59:30;;;;;;;2.05;0.50;;;20.00;99.90;;;;;;5081489;28;20032;-82
2022/09/12 04:01:55;;;;;;;2.08;0.38;;;20.00;99.90;;;;;;5080097;28;20062;-82
2022/09/12 04:04:21;;;;;;;2.03;0.65;;;20.00;99.90;;;;;;5083715;28;20096;-82
2022/09/12 04:06:47;;;;;;;2.10;0.28;;;20.00;99.90;;;;;;5073261;28;20037;-82
2022/09/12 04:09:12;;;;;;;1.17;0.55;;;19.90;99.90;;;;;;5083083;28;20285;-81
2022/09/12 04:11:38;;;;;;;3.30;0.47;;;19.90;99.90;;;;;;5083586;28;20024;-81
2022/09/12 04:14:03;;;;;;;1.40;0.40;;;19.90;99.90;;;;;;5083863;28;20062;-82
2022/09/12 04:16:29;;;;;;;0.50;0.30;;;19.90;99.90;;;;;;5083875;28;20032;-81
2022/09/12 04:18:55;;;;;;;0.90;0.40;;;19.90;99.90;;;;;;5083660;28;20028;-81
2022/09/12 04:21:21;;;;;;;0.70;0.30;;;19.90;99.80;;;;;;5082976;28;20332;-82
2022/09/12 04:23:47;;;;;;;2.65;0.70;;;19.90;99.90;;;;;;5083015;28;20024;-82
2022/09/12 04:26:14;;;;;;;1.67;0.50;;;19.90;99.90;;;;;;5082077;28;20041;-81
2022/09/12 04:28:40;;;;;;;1.20;0.45;;;19.80;99.90;;;;;;5082944;28;20021;-82
2022/09/12 04:31:09;;;;;;;1.40;0.50;;;19.90;99.90;;;;;;5080192;28;20107;-81
2022/09/12 04:33:35;;;;;;;1.10;0.50;;;19.90;99.90;;;;;;5079001;28;20032;-82
2022/09/12 04:36:10;;;;;;;1.30;0.38;;;19.80;99.80;;;;;;5082949;28;20032;-82
2022/09/12 04:38:36;;;;;;;1.63;0.40;;;19.80;99.90;;;;;;5083203;28;20017;-82
2022/09/12 04:41:23;;;;;;;3.05;0.50;;;19.90;99.90;;;;;;5074580;28;20033;-81
2022/09/12 04:43:58;;;;;;;0.95;0.47;;;19.90;99.90;;;;;;5083282;28;20043;-81
2022/09/12 04:46:25;;;;;;;1.92;0.60;;;19.90;99.90;;;;;;5077871;28;20069;-82
2022/09/12 04:48:50;;;;;;;0.85;0.40;;;19.90;99.90;;;;;;5083050;28;20015;-81
2022/09/12 04:51:22;;;;;;;1.58;0.50;;;19.90;99.90;;;;;;5082661;28;20016;-81
2022/09/12 04:53:49;;;;;;;2.45;0.50;;;19.90;99.90;;;;;;5082884;28;20077;-81
2022/09/12 04:56:16;;;;;;;2.55;0.50;;;20.00;99.90;;;;;;5073185;28;20016;-82
2022/09/12 04:58:41;;;;;;;1.95;0.30;;;19.90;99.80;;;;;;5082503;28;20024;-81
2022/09/12 05:01:10;;;;;;;1.45;0.40;;;19.90;99.90;;;;;;5082163;28;20515;-82
2022/09/12 05:03:39;;;;;;;0.77;0.30;;;19.90;99.90;;;;;;5080436;28;20055;-80
2022/09/12 05:06:07;;;;;;;1.33;0.50;;;19.90;99.90;;;;;;5077002;28;20089;-83
2022/09/12 05:08:34;;;;;;;2.88;1.02;;;19.80;99.90;;;;;;5070993;28;20397;-81
2022/09/12 05:11:20;;;;;;;4.28;0.40;;;19.80;99.90;;;;;;5079750;28;20313;-81
2022/09/12 05:13:46;;;;;;;1.27;0.40;;;19.70;99.90;;;;;;5072781;28;20409;-80
2022/09/12 05:16:16;;;;;;;1.75;0.40;;;19.70;99.90;;;;;;5070854;28;20016;-81
2022/09/12 05:18:44;;;;;;;0.85;0.40;;;19.70;99.90;;;;;;5080010;28;20032;-81
2022/09/12 05:21:15;;;;;;;0.90;0.30;;;19.70;99.90;;;;;;5068020;28;20027;-81
2022/09/12 05:23:41;;;;;;;2.78;0.77;;;19.70;99.90;;;;;;5070194;28;20029;-81
2022/09/12 05:26:07;;;;;;;1.70;0.60;;;19.70;99.90;;;;;;5069969;28;20516;-81
2022/09/12 05:28:37;;;;;;;0.95;0.30;;;19.70;99.90;;;;;;5070430;28;20211;-81
2022/09/12 05:31:02;;;;;;;2.13;0.50;;;19.60;99.90;;;;;;5073841;28;20056;-81
2022/09/12 05:33:29;;;;;;;1.90;0.40;;;19.70;99.90;;;;;;5073226;28;20429;-81
2022/09/12 05:35:55;;;;;;;1.90;0.50;;;19.70;99.90;;;;;;5071274;28;20379;-81
2022/09/12 05:38:20;;;;;;;2.00;0.50;;;19.70;99.90;;;;;;5073129;28;20028;-81
2022/09/12 05:40:46;;;;;;;2.20;0.60;;;19.70;99.90;;;;;;5076637;28;20032;-81
2022/09/12 05:43:11;;;;;;;2.65;0.50;;;19.80;99.80;;;;;;5071241;28;20469;-81
2022/09/12 05:45:40;;;;;;;1.35;0.40;;;19.80;99.80;;;;;;5079751;28;20024;-82
2022/09/12 05:48:06;;;;;;;3.88;0.65;;;19.80;99.80;;;;;;5081806;28;20024;-81
2022/09/12 05:50:32;;;;;;;1.77;0.40;;;19.80;99.50;;;;;;5066734;28;20225;-82
2022/09/12 05:52:57;;;;;;;1.85;0.50;;;19.90;99.50;;;;;;5080477;28;20033;-81
2022/09/12 05:55:23;;;;;;;1.63;0.60;;;19.90;99.60;;;;;;5080691;28;20380;-81
2022/09/12 05:57:49;;;;;;;4.15;0.73;;;19.90;99.70;;;;;;5080528;28;20036;-82
2022/09/12 06:00:16;;;;;;;4.47;0.68;;;19.90;99.60;;;;;;5074648;28;20028;-82
2022/09/12 06:02:42;;;;;;;1.77;0.50;;;19.90;99.70;;;;;;5081520;28;20141;-81
2022/09/12 06:05:08;;;;;;;5.68;0.80;;;20.00;99.60;;;;;;5080828;28;20112;-82
2022/09/12 06:07:34;;;;;;;4.57;0.47;;;20.00;99.50;;;;;;5081357;28;20095;-82
2022/09/12 06:10:00;;;;;;;2.92;0.60;;;20.00;99.60;;;;;;5081026;28;20017;-81
2022/09/12 06:12:29;;;;;;;2.88;0.55;;;20.10;99.40;;;;;;5080791;28;20221;-82
2022/09/12 06:14:55;;;;;;;1.50;0.35;;;20.10;99.30;;;;;;5080278;28;20136;-81
2022/09/12 06:17:21;;;;;;;3.78;0.90;;;20.10;99.30;;;;;;5071456;28;20024;-82
2022/09/12 06:19:49;;;;;;;1.77;0.60;;;20.20;99.60;;;;;;5069596;28;20046;-81
2022/09/12 06:22:16;;;;;;;1.75;0.50;;;20.20;99.30;;;;;;5069856;28;20024;-81
2022/09/12 06:24:42;;;;;;;1.50;0.73;;;20.30;99.50;;;;;;5069762;28;20024;-81
2022/09/12 06:27:08;;;;;;;1.95;0.80;;;20.30;99.30;;;;;;5067753;28;20020;-81
2022/09/12 06:29:33;;;;;;;2.45;0.52;;;20.40;99.50;;;;;;5069757;28;20013;-82
2022/09/12 06:31:59;;;;;;;2.03;0.60;;;20.40;99.40;;;;;;5069726;28;20060;-81
2022/09/12 06:34:25;;;;;;;5.45;0.68;;;20.50;99.40;;;;;;5069644;28;20405;-81
2022/09/12 06:36:51;;;;;;;1.58;0.45;;;20.60;99.30;;;;;;5069157;28;20425;-82
2022/09/12 06:39:22;;;;;;;3.63;0.80;;;20.60;99.20;;;;;;5068445;28;20047;-81
2022/09/12 06:41:49;;;;;;;1.25;0.50;;;20.60;99.10;;;;;;5068055;28;20013;-81
2022/09/12 06:44:18;;;;;;;2.30;0.63;;;20.70;99.20;;;;;;5068572;28;20489;-81
2022/09/12 06:46:44;;;;;;;1.70;0.57;;;20.80;98.90;;;;;;5068550;28;20522;-81
2022/09/12 06:49:10;;;;;;;1.58;0.60;;;20.80;99.00;;;;;;5068639;28;20024;-81
2022/09/12 06:51:36;;;;;;;2.28;0.60;;;20.90;99.10;;;;;;5068391;28;20028;-81
2022/09/12 06:54:03;;;;;;;2.75;0.75;;;21.00;98.90;;;;;;5069241;28;20120;-81
2022/09/12 06:56:28;;;;;;;2.92;0.60;;;21.00;98.60;;;;;;5068539;28;20017;-81
2022/09/12 06:58:56;;;;;;;3.17;0.82;;;21.10;98.60;;;;;;5069432;28;20024;-81
2022/09/12 07:01:27;;;;;;;5.13;0.80;;;21.20;98.30;;;;;;5069614;28;20017;-81
2022/09/12 07:03:55;;;;;;;3.10;0.82;;;21.20;98.30;;;;;;5069292;28;20025;-81
2022/09/12 07:06:23;;;;;;;3.70;0.68;;;21.30;98.20;;;;;;5069893;28;20013;-81
2022/09/12 07:08:49;;;;;;;1.30;0.60;;;21.30;98.20;;;;;;5069332;28;20366;-81
2022/09/12 07:11:21;;;;;;;6.80;0.82;;;21.40;98.30;;;;;;5068879;28;20020;-81
2022/09/12 07:13:52;;;;;;;5.80;1.02;;;21.40;98.30;;;;;;5069340;28;20381;-81
2022/09/12 07:16:18;;;;;;;2.55;0.60;;;21.50;98.20;;;;;;5069255;28;20489;-81
2022/09/12 07:18:45;;;;;;;2.55;0.60;;;21.60;98.10;;;;;;5069077;28;20036;-81
2022/09/12 07:21:13;;;;;;;2.95;0.75;;;21.60;98.20;;;;;;5069243;28;20009;-81
2022/09/12 07:23:40;;;;;;;2.30;0.60;;;21.70;98.00;;;;;;5069327;28;20025;-81
2022/09/12 07:26:09;;;;;;;2.53;0.90;;;21.80;97.90;;;;;;5068802;28;20448;-82
2022/09/12 07:28:35;;;;;;;4.20;1.00;;;21.90;97.90;;;;;;5065361;28;20047;-81
2022/09/12 07:31:09;;;;;;;7.05;0.88;;;21.90;97.50;;;;;;5068966;28;20037;-81
2022/09/12 07:33:36;;;;;;;2.55;0.52;;;22.00;97.40;;;;;;5067602;28;20047;-81
2022/09/12 07:36:04;;;;;;;3.13;0.60;;;22.10;97.40;;;;;;5069164;28;20546;-81
2022/09/12 07:38:29;;;;;;;1.92;0.50;;;22.20;97.20;;;;;;5068703;28;20025;-81
2022/09/12 07:40:55;;;;;;;3.67;0.60;;;22.30;97.10;;;;;;5068550;28;20066;-81
2022/09/12 07:43:22;;;;;;;1.02;0.60;;;22.30;97.10;;;;;;5068822;28;20053;-81
2022/09/12 07:45:47;;;;;;;3.60;0.77;;;22.40;96.90;;;;;;5068934;28;20033;-81
2022/09/12 07:48:15;;;;;;;2.50;0.88;;;22.50;96.80;;;;;;5069046;28;20039;-81
2022/09/12 07:50:40;;;;;;;1.65;0.50;;;22.60;96.70;;;;;;5065595;28;20178;-81
2022/09/12 07:53:06;;;;;;;3.15;0.77;;;22.70;96.80;;;;;;5068980;28;20595;-81
2022/09/12 07:55:32;;;;;;;5.97;0.70;;;22.80;96.60;;;;;;5068523;28;20060;-81
2022/09/12 07:57:57;;;;;;;3.17;0.70;;;22.90;96.40;;;;;;5069278;28;20020;-81
2022/09/12 08:00:23;;;;;;;6.85;0.70;;;23.10;96.00;;;;;;5068728;28;20083;-81
2022/09/12 08:02:53;;;;;;;1.38;0.65;;;23.20;96.00;;;;;;5068927;28;20028;-81
2022/09/12 08:05:22;;;;;;;5.53;0.60;;;23.30;95.90;;;;;;5068889;28;20031;-81
2022/09/12 08:07:48;;;;;;;3.42;0.70;;;23.40;95.70;;;;;;5067303;28;20013;-81
2022/09/12 08:10:15;;;;;;;5.18;0.95;;;23.50;95.50;;;;;;5072070;28;20378;-81
2022/09/12 08:12:40;;;;;;;4.30;0.52;;;23.60;95.40;;;;;;5071944;28;20542;-81
2022/09/12 08:15:07;;;;;;;1.95;0.85;;;23.70;95.40;;;;;;5072543;28;20025;-81
2022/09/12 08:17:33;;;;;;;3.78;0.85;;;23.80;95.10;;;;;;5072242;28;20162;-83
2022/09/12 08:19:58;;;;;;;3.35;0.80;;;23.80;94.90;;;;;;5071980;28;20095;-83
2022/09/12 08:22:24;;;;;;;3.97;0.68;;;23.90;95.10;;;;;;5072145;28;20024;-81
2022/09/12 08:24:50;;;;;;;3.85;0.60;;;24.00;94.80;;;;;;5071891;28;20118;-81
2022/09/12 08:27:16;;;;;;;2.88;0.60;;;24.00;94.90;;;;;;5071561;28;20025;-81
2022/09/12 08:29:41;;;;;;;3.92;0.65;;;24.20;94.70;;;;;;5071913;28;20016;-81
2022/09/12 08:32:07;;;;;;;5.15;0.70;;;24.20;95.20;;;;;;5071945;28;20131;-81
2022/09/12 08:34:33;;;;;;;5.60;0.90;;;24.30;94.90;;;;;;5072070;28;20037;-81
2022/09/12 08:36:59;;;;;;;4.28;0.90;;;24.40;94.60;;;;;;5071690;28;20024;-81
2022/09/12 08:39:24;;;;;;;2.58;0.60;;;24.60;94.50;;;;;;5071594;28;20021;-81
2022/09/12 08:42:03;;;;;;;1.83;0.57;;;24.70;94.30;;;;;;5070976;28;20020;-81
2022/09/12 08:44:56;;;;;;;5.93;0.80;;;24.80;94.60;;;;;;5071650;28;20028;-81
2022/09/12 08:47:25;;;;;;;7.10;0.98;;;24.80;94.20;;;;;;5066840;28;20021;-81
2022/09/12 08:50:03;;;;;;;6.63;0.90;;;24.90;94.10;;;;;;5071644;28;20021;-81
2022/09/12 08:52:38;;;;;;;5.07;0.75;;;25.00;93.70;;;;;;5071911;28;20025;-81
2022/09/12 08:55:11;;;;;;;2.28;0.70;;;25.10;93.60;;;;;;5071846;28;20028;-81
2022/09/12 08:57:37;;;;;;;3.65;1.33;;;25.20;94.30;;;;;;5071643;28;20020;-81
2022/09/12 09:00:04;;;;;;;3.80;0.70;;;25.30;93.60;;;;;;5071351;28;20035;-81
2022/09/12 09:02:45;;;;;;;3.97;0.57;;;25.40;93.60;;;;;;5070026;28;20424;-81
2022/09/12 09:05:22;;;;;;;2.65;0.70;;;25.50;93.50;;;;;;5071098;28;20561;-81
2022/09/12 09:08:12;;;;;;;3.08;0.60;;;25.60;93.30;;;;;;5068320;28;20158;-81
2022/09/12 09:10:45;;;;;;;7.57;0.77;;;25.70;93.60;;;;;;5070926;28;20075;-81
2022/09/12 09:16:31;;;;;;;4.43;0.82;;;25.90;93.80;;;;;;5069898;28;20540;-81
2022/09/12 09:19:01;;;;;;;4.03;0.80;;;26.10;94.00;;;;;;5070757;28;20478;-81
2022/09/12 09:21:41;;;;;;;5.07;0.73;;;26.20;92.90;;;;;;5070717;28;20051;-81
2022/09/12 09:24:11;;;;;;;3.30;0.82;;;26.30;93.30;;;;;;5070955;28;20031;-81
2022/09/12 09:26:59;;;;;;;6.35;0.88;;;26.40;93.00;;;;;;5068719;28;20056;-81
2022/09/12 09:29:45;;;;;;;1.23;0.55;;;26.60;92.60;;;;;;5067045;28;20024;-81
2022/09/12 09:32:33;;;;;;;5.15;1.00;;;26.80;92.00;;;;;;5069145;28;20036;-81
2022/09/12 09:35:18;;;;;;;2.83;0.70;;;27.00;92.10;;;;;;5067839;28;20120;-81
2022/09/12 09:37:51;;;;;;;;;;;27.20;91.60;;;;;;5071225;28;20304;-81
2022/09/12 09:40:22;;;;;;;6.25;1.00;;;27.40;91.60;;;;;;5070096;28;20383;-81
2022/09/12 09:43:19;;;;;;;3.00;0.98;;;27.60;91.50;;;;;;5070471;28;20016;-81
2022/09/12 09:45:44;;;;;;;3.00;0.90;;;27.60;91.10;;;;;;5065507;28;20020;-81
2022/09/12 09:48:42;;;;;;;6.28;1.08;;;27.60;91.80;;;;;;5070429;28;20046;-81
2022/09/12 09:51:08;;;;;;;6.20;0.80;;;27.50;92.00;;;;;;5057384;28;20377;-81
2022/09/12 09:53:50;;;;;;;3.78;1.13;;;27.50;91.80;;;;;;5070386;28;20048;-81
2022/09/12 09:56:21;;;;;;;7.72;0.82;;;27.60;91.90;;;;;;5062338;28;20107;-81
2022/09/12 09:58:47;;;;;;;8.50;0.98;;;27.60;91.60;;;;;;5070320;28;20028;-81
2022/09/12 10:01:16;;;;;;;6.18;0.80;;;27.60;91.50;;;;;;5070075;28;20020;-81
2022/09/12 10:03:53;;;;;;;4.18;0.70;;;27.50;91.70;;;;;;5070196;28;20389;-80
2022/09/12 10:06:22;;;;;;;5.82;0.77;;;27.70;92.00;;;;;;5069751;28;20043;-81
2022/09/12 10:08:49;;;;;;;4.90;0.85;;;28.00;91.40;;;;;;5070396;28;20060;-81
2022/09/12 10:11:14;;;;;;;3.05;0.60;;;28.10;91.30;;;;;;5069678;28;20019;-81
2022/09/12 10:13:57;;;;;;;3.95;0.77;;;28.30;91.00;;;;;;5070037;28;20082;-81
2022/09/12 10:16:31;;;;;;;4.07;0.85;;;28.40;91.30;;;;;;5070513;28;20070;-81
2022/09/12 10:18:59;;;;;;;5.95;0.80;;;28.50;91.60;;;;;;5070012;28;20435;-81
2022/09/12 10:21:46;;;;;;;3.25;0.80;;;28.50;91.20;;;;;;5069733;28;20017;-81
2022/09/12 10:24:29;;;;;;;4.93;0.85;;;28.60;91.60;;;;;;5063487;28;20028;-81
2022/09/12 10:27:08;;;;;;;2.33;0.60;;;28.80;91.30;;;;;;5065027;28;20030;-81
2022/09/12 10:29:44;;;;;;;2.70;0.80;;;28.90;91.10;;;;;;5070058;28;20095;-81
2022/09/12 10:32:11;;;;;;;4.75;0.88;;;29.10;91.10;;;;;;5069045;28;20055;-80
2022/09/12 10:34:42;;;;;;;5.32;1.02;;;29.00;91.10;;;;;;5069884;28;20120;-80
2022/09/12 10:37:16;;;;;;;4.50;1.20;;;29.00;90.90;;;;;;5069830;28;20477;-81
2022/09/12 10:39:53;;;;;;;10.38;2.10;;;28.90;91.00;;;;;;5069351;28;20029;-80
2022/09/12 10:42:43;;;;;;;13.25;3.00;;;28.90;91.10;;;;;;5063171;28;20029;-81
2022/09/12 10:45:27;;;;;;;10.65;2.97;;;28.80;91.20;;;;;;5069459;28;20035;-81
2022/09/12 10:47:54;;;;;;;;;;;28.70;91.40;;;;;;5069741;28;20027;-81
2022/09/12 10:50:25;;;;;;;9.55;2.40;;;28.40;91.50;;;;;;5069531;28;19908;-81
2022/09/12 10:52:52;;;;;;;8.75;2.33;;;28.20;91.30;;;;;;5080887;28;20405;-81
2022/09/12 10:55:24;;;;;;;15.35;3.03;;;28.20;91.80;;;;;;5100523;28;20427;-81
2022/09/12 10:58:09;;;;;;;17.63;3.72;;;28.10;91.90;;;;;;5069546;28;20370;-80
2022/09/12 11:00:45;;;;;;;7.70;1.60;;;28.10;91.60;;;;;;5064529;28;20055;-80
2022/09/12 11:03:39;;;;;;;9.77;2.10;;;28.10;91.50;;;;;;5068714;28;20064;-80
2022/09/12 11:06:07;;;;;;;9.10;1.35;;;28.20;91.70;;;;;;5069236;28;20048;-80
2022/09/12 11:08:43;;;;;;;7.75;1.23;;;28.30;91.30;;;;;;5067794;28;20063;-80
2022/09/12 11:11:18;;;;;;;3.60;1.15;;;28.50;91.00;;;;;;5062163;28;20028;-80
2022/09/12 11:14:35;;;;;;;7.25;1.23;;;28.70;91.00;;;;;;5068273;28;20552;-80
2022/09/12 11:17:13;;;;;;;4.57;1.30;;;28.90;91.00;;;;;;5025368;28;20236;-80
2022/09/12 11:19:55;;;;;;;3.20;1.10;;;29.10;90.80;;;;;;5025783;28;20032;-80
2022/09/12 11:22:46;;;;;;;6.18;1.17;;;29.30;90.60;;;;;;5056397;28;20040;-80
2022/09/12 11:25:48;;;;;;;3.10;0.98;;;29.50;90.50;;;;;;5064875;28;20028;-80
2022/09/12 11:28:28;;;;;;;6.35;1.23;;;29.60;90.20;;;;;;5069114;28;20067;-80
2022/09/12 11:31:32;;;;;;;4.25;0.93;;;29.80;90.30;;;;;;5063481;28;20032;-80
2022/09/12 11:34:01;;;;;;;6.03;1.20;;;30.00;89.40;;;;;;5068947;28;20115;-80
2022/09/12 11:36:55;;;;;;;4.60;1.13;;;30.20;90.20;;;;;;5069494;28;20067;-80
2022/09/12 11:39:28;;;;;;;5.30;1.05;;;30.50;89.70;;;;;;5065121;28;20013;-81
2022/09/12 11:42:00;;;;;;;7.28;1.00;;;31.00;88.90;;;;;;5068922;28;20120;-80
2022/09/12 11:44:41;;;;;;;5.55;1.35;;;31.60;87.80;;;;;;5068626;28;20036;-80
2022/09/12 11:47:11;;;;;;;2.58;1.13;;;31.90;87.20;;;;;;5072531;28;20032;-80
2022/09/12 11:49:39;;;;;;;2.72;1.10;;;31.80;85.80;;;;;;5072798;28;20034;-80
2022/09/12 11:52:26;;;;;;;4.05;0.88;;;31.80;86.70;;;;;;5072901;28;20028;-80
2022/09/12 11:55:03;;;;;;;3.63;0.88;;;31.80;87.00;;;;;;5067992;28;20515;-80
2022/09/12 11:57:40;;;;;;;5.85;1.08;;;31.80;86.80;;;;;;5072193;28;20112;-80
2022/09/12 12:00:27;;;;;;;3.95;1.20;;;31.70;86.30;;;;;;5072348;28;20108;-80
2022/09/12 12:03:02;;;;;;;7.35;1.30;;;31.70;86.70;;;;;;5071193;28;20046;-81
2022/09/12 12:05:53;;;;;;;5.53;1.33;;;32.00;87.30;;;;;;5066862;28;20389;-81
2022/09/12 12:08:21;;;;;;;5.50;1.00;;;32.60;85.80;;;;;;5070388;28;20046;-80
2022/09/12 12:11:02;;;;;;;2.53;1.00;;;33.10;85.90;;;;;;5071958;28;20476;-80
2022/09/12 12:13:34;;;;;;;7.85;1.40;;;33.60;84.40;;;;;;5072001;28;20036;-80
2022/09/12 12:16:12;;;;;;;7.20;1.40;;;33.80;85.40;;;;;;5072167;28;20078;-80
2022/09/12 12:18:39;;;;;;;2.75;0.95;;;33.90;83.80;;;;;;5066844;28;20081;-80
2022/09/12 12:21:38;;;;;;;4.85;1.08;;;33.70;83.90;;;;;;5072137;28;20017;-80
2022/09/12 12:24:06;;;;;;;5.28;1.17;;;33.20;84.40;;;;;;5096359;28;20060;-80
2022/09/12 12:26:38;;;;;;;6.80;1.42;;;32.90;84.60;;;;;;5071497;28;20050;-80
2022/09/12 12:29:31;;;;;;;3.90;1.17;;;32.50;85.10;;;;;;5071853;28;20036;-80
2022/09/12 12:32:02;;;;;;;7.38;1.75;;;32.40;85.60;;;;;;5062260;28;20045;-80
2022/09/12 12:34:29;;;;;;;4.75;1.20;;;32.60;85.40;;;;;;5070604;28;20092;-80
2022/09/12 12:36:55;;;;;;;7.15;1.10;;;32.90;85.50;;;;;;5072075;28;20040;-80
2022/09/12 12:39:33;;;;;;;7.32;1.38;;;33.00;84.30;;;;;;5071827;28;20059;-80
2022/09/12 12:42:00;;;;;;;7.20;1.10;;;33.00;84.70;;;;;;5071451;28;20371;-80
2022/09/12 12:44:58;;;;;;;4.63;1.20;;;33.10;84.60;;;;;;5071757;28;20463;-81
2022/09/12 12:47:38;;;;;;;2.90;1.08;;;33.10;83.70;;;;;;5043017;28;20409;-80
2022/09/12 12:50:10;;;;;;;7.05;1.52;;;33.30;83.80;;;;;;5063623;28;20453;-80
2022/09/12 12:52:49;;;;;;;3.67;1.10;;;33.60;84.00;;;;;;5071486;28;20059;-80
2022/09/12 12:55:38;;;;;;;11.73;1.45;;;33.60;83.50;;;;;;5070476;28;20117;-80
2022/09/12 12:58:06;;;;;;;7.63;1.80;;;33.30;83.80;;;;;;5065867;28;20071;-80
2022/09/12 13:00:35;;;;;;;6.32;1.35;;;33.10;84.20;;;;;;5071524;28;20516;-80
2022/09/12 13:03:05;;;;;;;5.80;1.40;;;32.80;84.70;;;;;;5071052;28;20013;-80
2022/09/12 13:05:43;;;;;;;5.70;1.45;;;32.80;84.90;;;;;;5071340;28;20024;-80
2022/09/12 13:08:27;;;;;;;5.03;1.50;;;33.00;84.90;;;;;;5067206;28;20032;-81
2022/09/12 13:11:06;;;;;;;7.60;1.60;;;33.30;84.40;;;;;;5070747;28;20028;-80
2022/09/12 13:13:41;;;;;;;5.53;1.58;;;33.50;84.60;;;;;;5071128;28;20484;-80
2022/09/12 13:16:09;;;;;;;7.10;1.40;;;33.50;84.40;;;;;;5067150;28;20058;-80
2022/09/12 13:18:48;;;;;;;6.93;1.67;;;33.30;84.90;;;;;;5071228;28;20025;-80
2022/09/12 13:21:15;;;;;;;5.65;1.45;;;33.00;84.70;;;;;;5070843;28;20428;-80